^^
Saratoga-Weather Station Historical Data
Daily Summary for November 27, 2020 Units:  Metric    English   Both
Daily Weekly Monthly Yearly Custom
  High: Low: Average:
Temperature: 3.3 °C -0.9 °C 1.2 °C
Dew Point: 3 °C -1.4 °C 0.8 °C
Humidity: 98% 96% 97%
Wind Speed: 3.2km/h 0km/h 0.2km/h
Wind Gust: 6.4km/h - -
Wind- - ENE
Pressure: 1020.7 hPa 1018.3 hPa -
Precipitation: 0.2 mm    
Historical Graphs
 
 
Tabular Data for November 27, 2020
Time Temperature Dew Point Pressure Wind Wind Speed Wind Gust Humidity Rainfall Rate (Hourly) solar
00:01 1.7 °C 1.1 °C 1020.7 hPa Calm     96% 0.0 mm 0 W/m2
00:06 1.7 °C 1.1 °C 1020.3 hPa Calm     96% 0.0 mm 0 W/m2
00:11 1.6 °C 1 °C 1020.7 hPa Calm     96% 0.0 mm 0 W/m2
00:16 1.6 °C 1 °C 1020.3 hPa Calm     96% 0.0 mm 0 W/m2
00:21 1.6 °C 1 °C 1020.3 hPa Calm     96% 0.0 mm 0 W/m2
00:26 1.6 °C 1 °C 1020.7 hPa Calm     96% 0.0 mm 0 W/m2
00:31 1.6 °C 1 °C 1020.7 hPa Calm     96% 0.0 mm 0 W/m2
00:36 1.5 °C 0.9 °C 1020.3 hPa Calm     96% 0.0 mm 0 W/m2
00:41 1.5 °C 0.9 °C 1020.3 hPa Calm     96% 0.0 mm 0 W/m2
00:46 1.4 °C 0.8 °C 1020.3 hPa Calm     96% 0.0 mm 0 W/m2
00:51 1.4 °C 0.8 °C 1020.3 hPa Calm     96% 0.0 mm 0 W/m2
00:56 1.3 °C 0.7 °C 1020.3 hPa Calm     96% 0.0 mm 0 W/m2
01:01 1.3 °C 0.7 °C 1020.3 hPa Calm     96% 0.0 mm 0 W/m2
01:06 1.2 °C 0.6 °C 1020.3 hPa Calm     96% 0.0 mm 0 W/m2
01:11 1.2 °C 0.6 °C 1020.3 hPa Calm     96% 0.0 mm 0 W/m2
01:16 1.2 °C 0.6 °C 1020.0 hPa Calm     96% 0.0 mm 0 W/m2
01:21 1.1 °C 0.5 °C 1020.0 hPa Calm     96% 0.0 mm 0 W/m2
01:26 1.1 °C 0.5 °C 1020.0 hPa Calm     96% 0.0 mm 0 W/m2
01:31 1.1 °C 0.5 °C 1020.0 hPa Calm     96% 0.0 mm 0 W/m2
01:36 1 °C 0.4 °C 1020.0 hPa Calm     96% 0.0 mm 0 W/m2
01:41 0.9 °C 0.3 °C 1020.0 hPa Calm     96% 0.0 mm 0 W/m2
01:46 0.9 °C 0.3 °C 1020.0 hPa Calm     96% 0.0 mm 0 W/m2
01:51 0.9 °C 0.3 °C 1020.0 hPa Calm     96% 0.0 mm 0 W/m2
01:56 0.9 °C 0.3 °C 1020.0 hPa Calm     96% 0.0 mm 0 W/m2
02:01 0.9 °C 0.5 °C 1020.0 hPa Calm     97% 0.0 mm 0 W/m2
02:06 0.9 °C 0.5 °C 1020.0 hPa Calm     97% 0.0 mm 0 W/m2
02:11 0.9 °C 0.5 °C 1020.0 hPa Calm     97% 0.0 mm 0 W/m2
02:16 0.8 °C 0.2 °C 1020.0 hPa Calm     96% 0.0 mm 0 W/m2
02:21 0.8 °C 0.2 °C 1020.0 hPa Calm     96% 0.0 mm 0 W/m2
02:26 0.7 °C 0.1 °C 1020.0 hPa Calm     96% 0.0 mm 0 W/m2
02:31 0.6 °C 0 °C 1020.0 hPa Calm     96% 0.0 mm 0 W/m2
02:36 0.5 °C -0.1 °C 1020.0 hPa Calm     96% 0.0 mm 0 W/m2
02:41 0.4 °C -0.2 °C 1020.0 hPa Calm     96% 0.0 mm 0 W/m2
02:46 0.4 °C -0.2 °C 1020.0 hPa Calm     96% 0.0 mm 0 W/m2
02:51 0.3 °C -0.3 °C 1020.0 hPa Calm     96% 0.0 mm 0 W/m2
02:56 0.3 °C -0.3 °C 1020.0 hPa Calm     96% 0.0 mm 0 W/m2
03:01 0.3 °C -0.3 °C 1020.0 hPa Calm     96% 0.0 mm 0 W/m2
03:06 0.2 °C -0.4 °C 1020.0 hPa Calm     96% 0.0 mm 0 W/m2
03:11 0.2 °C -0.4 °C 1020.0 hPa Calm     96% 0.0 mm 0 W/m2
03:16 0.2 °C -0.2 °C 1020.0 hPa Calm     97% 0.0 mm 0 W/m2
03:21 0.2 °C -0.4 °C 1020.0 hPa Calm     96% 0.0 mm 0 W/m2
03:26 0.2 °C -0.4 °C 1020.0 hPa Calm     96% 0.0 mm 0 W/m2
03:31 0.1 °C -0.5 °C 1020.0 hPa Calm     96% 0.0 mm 0 W/m2
03:36 0.1 °C -0.3 °C 1020.0 hPa Calm     97% 0.0 mm 0 W/m2
03:41 0 °C -0.4 °C 1020.0 hPa Calm     97% 0.0 mm 0 W/m2
03:46 0 °C -0.4 °C 1020.0 hPa Calm     97% 0.0 mm 0 W/m2
03:51 0 °C -0.4 °C 1019.6 hPa Calm     97% 0.0 mm 0 W/m2
03:56 0.1 °C -0.3 °C 1019.6 hPa Calm     97% 0.0 mm 0 W/m2
04:01 0 °C -0.4 °C 1019.6 hPa Calm     97% 0.0 mm 0 W/m2
04:06 0 °C -0.4 °C 1019.6 hPa Calm     97% 0.0 mm 0 W/m2
04:11 0.1 °C -0.3 °C 1019.6 hPa Calm     97% 0.0 mm 0 W/m2
04:16 0.1 °C -0.3 °C 1019.6 hPa Calm     97% 0.0 mm 0 W/m2
04:21 0.1 °C -0.3 °C 1019.6 hPa Calm     97% 0.0 mm 0 W/m2
04:26 0.2 °C -0.2 °C 1019.6 hPa Calm     97% 0.0 mm 0 W/m2
04:31 0.2 °C -0.2 °C 1019.6 hPa Calm     97% 0.0 mm 0 W/m2
04:36 0.2 °C -0.2 °C 1019.6 hPa Calm     97% 0.0 mm 0 W/m2
04:42 0.2 °C -0.2 °C 1019.6 hPa Calm     97% 0.0 mm 0 W/m2
04:47 0.2 °C -0.2 °C 1019.6 hPa Calm     97% 0.0 mm 0 W/m2
04:52 0.1 °C -0.3 °C 1019.6 hPa Calm     97% 0.0 mm 0 W/m2
04:57 0.1 °C -0.3 °C 1019.6 hPa Calm     97% 0.0 mm 0 W/m2
05:02 0 °C -0.4 °C 1019.6 hPa Calm     97% 0.0 mm 0 W/m2
05:07 -0.1 °C -0.5 °C 1019.6 hPa Calm     97% 0.0 mm 0 W/m2
05:12 -0.2 °C -0.8 °C 1019.6 hPa Calm     96% 0.0 mm 0 W/m2
05:17 -0.2 °C -0.6 °C 1019.6 hPa Calm     97% 0.0 mm 0 W/m2
05:22 -0.3 °C -0.7 °C 1019.6 hPa Calm     97% 0.0 mm 0 W/m2
05:27 -0.3 °C -0.7 °C 1019.6 hPa Calm     97% 0.0 mm 0 W/m2
05:32 -0.4 °C -1 °C 1019.6 hPa Calm     96% 0.0 mm 0 W/m2
05:37 -0.5 °C -1.1 °C 1019.6 hPa Calm     96% 0.0 mm 0 W/m2
05:42 -0.6 °C -1.2 °C 1020.0 hPa Calm     96% 0.0 mm 0 W/m2
05:47 -0.6 °C -1 °C 1020.0 hPa Calm     97% 0.0 mm 0 W/m2
05:52 -0.6 °C -1 °C 1020.0 hPa Calm     97% 0.0 mm 0 W/m2
05:57 -0.7 °C -1.3 °C 1019.6 hPa Calm     96% 0.0 mm 0 W/m2
06:02 -0.7 °C -1.3 °C 1019.6 hPa Calm     96% 0.0 mm 0 W/m2
06:07 -0.7 °C -1.3 °C 1019.6 hPa Calm     96% 0.0 mm 0 W/m2
06:12 -0.8 °C -1.4 °C 1019.6 hPa Calm     96% 0.0 mm 0 W/m2
06:17 -0.8 °C -1.2 °C 1019.6 hPa Calm     97% 0.0 mm 0 W/m2
06:22 -0.8 °C -1.2 °C 1019.6 hPa Calm     97% 0.0 mm 0 W/m2
06:27 -0.8 °C -1.2 °C 1019.6 hPa Calm     97% 0.0 mm 0 W/m2
06:32 -0.8 °C -1.2 °C 1019.6 hPa Calm     97% 0.0 mm 0 W/m2
06:37 -0.8 °C -1.2 °C 1019.6 hPa Calm     97% 0.0 mm 0 W/m2
06:42 -0.7 °C -1.1 °C 1019.6 hPa Calm     97% 0.0 mm 0 W/m2
06:47 -0.7 °C -1.1 °C 1019.6 hPa Calm     97% 0.0 mm 0 W/m2
06:52 -0.7 °C -1.1 °C 1019.6 hPa Calm     97% 0.0 mm 0 W/m2
06:57 -0.7 °C -1.1 °C 1019.6 hPa Calm     97% 0.0 mm 0 W/m2
07:02 -0.7 °C -1.1 °C 1019.6 hPa Calm     97% 0.0 mm 0 W/m2
07:07 -0.7 °C -1.1 °C 1020.0 hPa Calm     97% 0.0 mm 0 W/m2
07:12 -0.7 °C -1.1 °C 1020.0 hPa Calm     97% 0.0 mm 0 W/m2
07:17 -0.7 °C -1.1 °C 1020.0 hPa Calm     97% 0.0 mm 0 W/m2
07:22 -0.7 °C -1.1 °C 1020.0 hPa Calm     97% 0.0 mm 0 W/m2
07:27 -0.6 °C -1 °C 1020.0 hPa Calm     97% 0.0 mm 0 W/m2
07:32 -0.7 °C -1.1 °C 1020.0 hPa Calm     97% 0.0 mm 0 W/m2
07:37 -0.7 °C -1.1 °C 1020.0 hPa Calm   1.6 km/h 97% 0.0 mm 0 W/m2
07:42 -0.7 °C -1.1 °C 1020.0 hPa Calm   1.6 km/h 97% 0.0 mm 0 W/m2
07:47 -0.7 °C -1.1 °C 1020.0 hPa Calm   1.6 km/h 97% 0.0 mm 0 W/m2
07:52 -0.8 °C -1.2 °C 1020.0 hPa East 1.4 km/h 1.6 km/h 97% 0.0 mm 0 W/m2
07:57 -0.8 °C -1.2 °C 1020.0 hPa East 1.4 km/h 3.2 km/h 97% 0.0 mm 0 W/m2
08:02 -0.9 °C -1.3 °C 1020.0 hPa Calm   1.6 km/h 97% 0.0 mm 0 W/m2
08:07 -0.9 °C -1.3 °C 1020.0 hPa Calm     97% 0.0 mm 0 W/m2
08:12 -0.9 °C -1.3 °C 1020.0 hPa Calm   1.6 km/h 97% 0.0 mm 5 W/m2
08:17 -0.9 °C -1.3 °C 1020.0 hPa Calm     97% 0.0 mm 7 W/m2
08:22 -0.9 °C -1.3 °C 1020.0 hPa Calm     97% 0.0 mm 9 W/m2
08:27 -0.9 °C -1.3 °C 1020.0 hPa Calm     97% 0.0 mm 12 W/m2
08:32 -0.9 °C -1.3 °C 1020.0 hPa Calm     97% 0.0 mm 14 W/m2
08:37 -0.8 °C -1.2 °C 1020.0 hPa Calm     97% 0.0 mm 19 W/m2
08:42 -0.8 °C -1.2 °C 1020.0 hPa Calm     97% 0.0 mm 23 W/m2
08:47 -0.8 °C -1.2 °C 1020.0 hPa East 1.4 km/h 1.6 km/h 97% 0.0 mm 28 W/m2
08:52 -0.8 °C -1.2 °C 1020.0 hPa Calm     97% 0.0 mm 30 W/m2
08:57 -0.7 °C -1.1 °C 1020.0 hPa East 1.4 km/h 3.2 km/h 97% 0.0 mm 32 W/m2
09:02 -0.7 °C -1.1 °C 1020.0 hPa East 1.4 km/h 1.6 km/h 97% 0.0 mm 33 W/m2
09:07 -0.7 °C -1.1 °C 1020.0 hPa Calm   1.6 km/h 97% 0.0 mm 39 W/m2
09:12 -0.6 °C -1 °C 1020.0 hPa Calm     97% 0.0 mm 42 W/m2
09:17 -0.6 °C -1 °C 1020.0 hPa Calm     97% 0.0 mm 46 W/m2
09:22 -0.5 °C -0.9 °C 1020.0 hPa Calm     97% 0.0 mm 44 W/m2
09:28 -0.5 °C -0.9 °C 1020.0 hPa Calm     97% 0.0 mm 39 W/m2
09:33 -0.4 °C -0.8 °C 1020.0 hPa Calm   1.6 km/h 97% 0.0 mm 44 W/m2
09:38 -0.4 °C -0.8 °C 1020.0 hPa Calm   1.6 km/h 97% 0.0 mm 53 W/m2
09:43 -0.4 °C -0.8 °C 1020.0 hPa East 1.4 km/h 1.6 km/h 97% 0.0 mm 56 W/m2
09:48 -0.3 °C -0.7 °C 1020.0 hPa East 1.4 km/h 3.2 km/h 97% 0.0 mm 54 W/m2
09:53 -0.3 °C -0.7 °C 1020.0 hPa Calm   1.6 km/h 97% 0.0 mm 58 W/m2
09:58 -0.3 °C -0.7 °C 1020.3 hPa East 3.2 km/h 3.2 km/h 97% 0.0 mm 62 W/m2
10:03 -0.3 °C -0.7 °C 1020.3 hPa East 1.4 km/h 3.2 km/h 97% 0.0 mm 58 W/m2
10:08 -0.4 °C -0.8 °C 1020.3 hPa Calm   3.2 km/h 97% 0.0 mm 63 W/m2
10:13 -0.4 °C -0.8 °C 1020.3 hPa Calm   1.6 km/h 97% 0.0 mm 70 W/m2
10:18 -0.4 °C -0.8 °C 1020.3 hPa Calm   3.2 km/h 97% 0.0 mm 65 W/m2
10:23 -0.4 °C -0.8 °C 1020.3 hPa Calm   3.2 km/h 97% 0.0 mm 70 W/m2
10:28 -0.3 °C -0.7 °C 1020.3 hPa NE 1.4 km/h 1.6 km/h 97% 0.0 mm 63 W/m2
10:33 -0.3 °C -0.7 °C 1020.3 hPa Calm     97% 0.0 mm 65 W/m2
10:38 -0.3 °C -0.7 °C 1020.3 hPa Calm     97% 0.0 mm 74 W/m2
10:43 -0.2 °C -0.6 °C 1020.3 hPa Calm   1.6 km/h 97% 0.0 mm 72 W/m2
10:48 -0.2 °C -0.6 °C 1020.0 hPa Calm   1.6 km/h 97% 0.0 mm 70 W/m2
10:53 -0.2 °C -0.6 °C 1020.0 hPa NNE 1.4 km/h 1.6 km/h 97% 0.2 mm 72 W/m2
10:58 -0.1 °C -0.5 °C 1020.0 hPa NNE 3.2 km/h 3.2 km/h 97% 0.2 mm 67 W/m2
11:03 -0.1 °C -0.5 °C 1020.0 hPa Calm   1.6 km/h 97% 0.2 mm 81 W/m2
11:08 0 °C -0.4 °C 1020.0 hPa NNE 3.2 km/h 3.2 km/h 97% 0.2 mm 88 W/m2
11:13 0.1 °C -0.3 °C 1020.0 hPa Calm     97% 0.2 mm 79 W/m2
11:18 0.2 °C -0.2 °C 1019.6 hPa North 1.4 km/h 1.6 km/h 97% 0.2 mm 79 W/m2
11:23 0.3 °C -0.1 °C 1019.6 hPa Calm     97% 0.2 mm 93 W/m2
11:28 0.3 °C -0.1 °C 1019.6 hPa Calm     97% 0.2 mm 98 W/m2
11:33 0.4 °C 0 °C 1019.6 hPa Calm     97% 0.2 mm 84 W/m2
11:38 0.6 °C 0.2 °C 1019.6 hPa Calm     97% 0.2 mm 86 W/m2
11:43 0.7 °C 0.3 °C 1019.6 hPa Calm   1.6 km/h 97% 0.2 mm 84 W/m2
11:48 0.8 °C 0.4 °C 1019.6 hPa Calm   1.6 km/h 97% 0.2 mm 76 W/m2
11:53 0.8 °C 0.4 °C 1019.3 hPa ENE 1.4 km/h 4.8 km/h 97% 0.0 mm 86 W/m2
11:58 0.8 °C 0.4 °C 1019.6 hPa ENE 1.4 km/h 3.2 km/h 97% 0.0 mm 91 W/m2
12:03 0.8 °C 0.4 °C 1019.3 hPa NE 1.4 km/h 1.6 km/h 97% 0.0 mm 95 W/m2
12:08 0.8 °C 0.4 °C 1019.3 hPa NE 1.4 km/h 1.6 km/h 97% 0.0 mm 88 W/m2
12:13 0.8 °C 0.4 °C 1019.3 hPa Calm   1.6 km/h 97% 0.0 mm 93 W/m2
12:18 0.9 °C 0.5 °C 1019.3 hPa Calm   3.2 km/h 97% 0.0 mm 100 W/m2
12:23 1 °C 0.6 °C 1019.3 hPa Calm     97% 0.0 mm 100 W/m2
12:28 1.1 °C 0.7 °C 1019.0 hPa East 3.2 km/h 4.8 km/h 97% 0.0 mm 97 W/m2
12:33 1.2 °C 0.8 °C 1019.0 hPa Calm   1.6 km/h 97% 0.0 mm 91 W/m2
12:38 1.2 °C 0.8 °C 1019.0 hPa NE 1.4 km/h 4.8 km/h 97% 0.0 mm 79 W/m2
12:43 1.2 °C 0.8 °C 1019.0 hPa Calm   1.6 km/h 97% 0.0 mm 79 W/m2
12:48 1.3 °C 0.9 °C 1019.0 hPa Calm   6.4 km/h 97% 0.0 mm 90 W/m2
12:53 1.4 °C 1 °C 1019.0 hPa NE 1.4 km/h 1.6 km/h 97% 0.0 mm 84 W/m2
12:58 1.4 °C 1 °C 1019.0 hPa NE 1.4 km/h 3.2 km/h 97% 0.0 mm 81 W/m2
13:03 1.4 °C 1.1 °C 1019.0 hPa NE 1.4 km/h 1.6 km/h 98% 0.0 mm 77 W/m2
13:08 1.5 °C 1.2 °C 1019.0 hPa NNE 1.4 km/h 1.6 km/h 98% 0.0 mm 70 W/m2
13:13 1.5 °C 1.2 °C 1019.0 hPa Calm   3.2 km/h 98% 0.0 mm 81 W/m2
13:18 1.6 °C 1.3 °C 1019.0 hPa Calm   3.2 km/h 98% 0.0 mm 76 W/m2
13:23 1.7 °C 1.3 °C 1019.0 hPa Calm     97% 0.0 mm 77 W/m2
13:28 1.7 °C 1.3 °C 1019.0 hPa Calm   3.2 km/h 97% 0.0 mm 74 W/m2
13:33 1.8 °C 1.5 °C 1019.0 hPa Calm   3.2 km/h 98% 0.0 mm 81 W/m2
13:38 1.9 °C 1.6 °C 1019.0 hPa Calm   1.6 km/h 98% 0.0 mm 77 W/m2
13:43 1.9 °C 1.6 °C 1019.0 hPa Calm   1.6 km/h 98% 0.0 mm 77 W/m2
13:48 1.9 °C 1.5 °C 1019.0 hPa Calm   1.6 km/h 97% 0.0 mm 77 W/m2
13:53 2 °C 1.6 °C 1018.6 hPa Calm   3.2 km/h 97% 0.0 mm 28 W/m2
13:58 2 °C 1.6 °C 1018.6 hPa NE 3.2 km/h 3.2 km/h 97% 0.0 mm 25 W/m2
14:03 2 °C 1.6 °C 1018.6 hPa Calm   1.6 km/h 97% 0.0 mm 37 W/m2
14:08 2 °C 1.6 °C 1018.6 hPa Calm     97% 0.0 mm 44 W/m2
14:13 2.1 °C 1.7 °C 1018.6 hPa Calm     97% 0.0 mm 51 W/m2
14:18 2.2 °C 1.9 °C 1018.6 hPa Calm   1.6 km/h 98% 0.0 mm 51 W/m2
14:23 2.2 °C 1.9 °C 1018.6 hPa Calm     98% 0.0 mm 49 W/m2
14:28 2.2 °C 1.9 °C 1018.6 hPa Calm   1.6 km/h 98% 0.0 mm 46 W/m2
14:33 2.3 °C 2 °C 1018.6 hPa Calm   1.6 km/h 98% 0.0 mm 47 W/m2
14:38 2.3 °C 1.9 °C 1018.6 hPa Calm     97% 0.0 mm 46 W/m2
14:43 2.4 °C 2 °C 1018.6 hPa Calm     97% 0.0 mm 46 W/m2
14:48 2.4 °C 2.1 °C 1018.6 hPa Calm   3.2 km/h 98% 0.0 mm 44 W/m2
14:53 2.6 °C 2.3 °C 1018.6 hPa Calm     98% 0.0 mm 39 W/m2
14:58 2.6 °C 2.3 °C 1018.6 hPa Calm   3.2 km/h 98% 0.0 mm 39 W/m2
15:03 2.6 °C 2.3 °C 1018.6 hPa Calm   1.6 km/h 98% 0.0 mm 37 W/m2
15:08 2.7 °C 2.4 °C 1018.6 hPa Calm   3.2 km/h 98% 0.0 mm 37 W/m2
15:14 2.7 °C 2.4 °C 1018.6 hPa Calm     98% 0.0 mm 30 W/m2
15:19 2.8 °C 2.5 °C 1018.6 hPa Calm     98% 0.0 mm 26 W/m2
15:24 2.8 °C 2.5 °C 1018.6 hPa Calm   3.2 km/h 98% 0.0 mm 26 W/m2
15:29 2.8 °C 2.5 °C 1018.6 hPa Calm     98% 0.0 mm 23 W/m2
15:34 2.9 °C 2.6 °C 1018.6 hPa Calm   3.2 km/h 98% 0.0 mm 19 W/m2
15:39 2.9 °C 2.6 °C 1018.6 hPa Calm   1.6 km/h 98% 0.0 mm 18 W/m2
15:44 3 °C 2.7 °C 1018.6 hPa Calm     98% 0.0 mm 18 W/m2
15:49 3 °C 2.7 °C 1018.3 hPa Calm     98% 0.0 mm 16 W/m2
15:54 3.1 °C 2.8 °C 1018.6 hPa Calm     98% 0.0 mm 14 W/m2
15:59 3.1 °C 2.8 °C 1018.3 hPa Calm     98% 0.0 mm 12 W/m2
16:04 3.1 °C 2.8 °C 1018.3 hPa Calm     98% 0.0 mm 12 W/m2
16:09 3.2 °C 2.9 °C 1018.3 hPa Calm   1.6 km/h 98% 0.0 mm 9 W/m2
16:14 3.2 °C 2.9 °C 1018.3 hPa Calm   3.2 km/h 98% 0.0 mm 7 W/m2
16:19 3.2 °C 2.9 °C 1018.3 hPa NE 1.4 km/h 1.6 km/h 98% 0.0 mm 7 W/m2
16:24 3.2 °C 2.9 °C 1018.3 hPa Calm   3.2 km/h 98% 0.0 mm 7 W/m2
16:29 3.2 °C 2.9 °C 1018.3 hPa Calm     98% 0.0 mm 5 W/m2
16:34 3.3 °C 3 °C 1018.3 hPa Calm     98% 0.0 mm 0 W/m2
16:39 3.3 °C 3 °C 1018.3 hPa Calm     98% 0.0 mm 0 W/m2
16:44 3.3 °C 3 °C 1018.3 hPa Calm     98% 0.0 mm 0 W/m2
16:49 3.3 °C 3 °C 1018.3 hPa Calm     98% 0.0 mm 0 W/m2
16:54 3.3 °C 3 °C 1018.3 hPa Calm     98% 0.0 mm 0 W/m2
16:59 3.3 °C 3 °C 1018.3 hPa Calm     98% 0.0 mm 0 W/m2
17:04 3.3 °C 3 °C 1018.3 hPa Calm     98% 0.0 mm 0 W/m2
17:09 3.3 °C 3 °C 1018.3 hPa Calm     98% 0.0 mm 0 W/m2
17:14 3.3 °C 3 °C 1018.3 hPa Calm     98% 0.0 mm 0 W/m2
17:19 3.3 °C 3 °C 1018.3 hPa Calm     98% 0.0 mm 0 W/m2
17:24 3.3 °C 3 °C 1018.3 hPa Calm     98% 0.0 mm 0 W/m2
17:29 3.3 °C 3 °C 1018.3 hPa Calm     98% 0.0 mm 0 W/m2
17:34 3.3 °C 3 °C 1018.3 hPa Calm     98% 0.0 mm 0 W/m2
17:39 3.3 °C 3 °C 1018.3 hPa Calm     98% 0.0 mm 0 W/m2
17:44 3.3 °C 3 °C 1018.6 hPa Calm     98% 0.0 mm 0 W/m2
17:49 3.3 °C 3 °C 1018.6 hPa Calm     98% 0.0 mm 0 W/m2
17:54 3.2 °C 2.9 °C 1018.3 hPa Calm     98% 0.0 mm 0 W/m2
17:59 3.2 °C 2.9 °C 1018.3 hPa Calm     98% 0.0 mm 0 W/m2
18:04 3.2 °C 2.8 °C 1018.3 hPa Calm     97% 0.0 mm 0 W/m2
18:09 3.2 °C 2.9 °C 1018.3 hPa Calm     98% 0.0 mm 0 W/m2
18:14 3.2 °C 2.9 °C 1018.3 hPa Calm     98% 0.0 mm 0 W/m2
18:19 3.1 °C 2.8 °C 1018.3 hPa Calm     98% 0.0 mm 0 W/m2
18:24 3 °C 2.7 °C 1018.3 hPa Calm     98% 0.0 mm 0 W/m2
18:29 2.9 °C 2.5 °C 1018.3 hPa Calm     97% 0.0 mm 0 W/m2
18:34 2.8 °C 2.4 °C 1018.3 hPa Calm     97% 0.0 mm 0 W/m2
18:39 2.8 °C 2.4 °C 1018.3 hPa Calm     97% 0.0 mm 0 W/m2
18:44 2.7 °C 2.3 °C 1018.3 hPa Calm     97% 0.0 mm 0 W/m2
18:49 2.6 °C 2.2 °C 1018.3 hPa Calm     97% 0.0 mm 0 W/m2
18:54 2.6 °C 2.2 °C 1018.3 hPa Calm     97% 0.0 mm 0 W/m2
18:59 2.5 °C 2.1 °C 1018.3 hPa Calm     97% 0.0 mm 0 W/m2
19:04 2.4 °C 2 °C 1018.3 hPa Calm     97% 0.0 mm 0 W/m2
19:09 2.4 °C 2 °C 1018.3 hPa Calm     97% 0.0 mm 0 W/m2
19:14 2.3 °C 1.9 °C 1018.3 hPa Calm     97% 0.0 mm 0 W/m2
19:19 2.3 °C 1.9 °C 1018.3 hPa Calm     97% 0.0 mm 0 W/m2
19:24 2.3 °C 1.9 °C 1018.3 hPa Calm     97% 0.0 mm 0 W/m2
19:29 2.3 °C 1.9 °C 1018.3 hPa Calm     97% 0.0 mm 0 W/m2
19:34 2.2 °C 1.8 °C 1018.3 hPa Calm     97% 0.0 mm 0 W/m2
19:39 2.2 °C 1.8 °C 1018.3 hPa Calm     97% 0.0 mm 0 W/m2
19:44 2.2 °C 1.8 °C 1018.3 hPa Calm     97% 0.0 mm 0 W/m2
19:49 2.2 °C 1.8 °C 1018.3 hPa Calm     97% 0.0 mm 0 W/m2
19:54 2.2 °C 1.8 °C 1018.3 hPa Calm     97% 0.0 mm 0 W/m2
19:59 2.2 °C 1.8 °C 1018.3 hPa Calm     97% 0.0 mm 0 W/m2
20:04 2.2 °C 1.8 °C 1018.6 hPa Calm     97% 0.0 mm 0 W/m2
20:10 2.2 °C 1.8 °C 1018.6 hPa Calm     97% 0.0 mm 0 W/m2
20:15 2.2 °C 1.8 °C 1018.6 hPa Calm     97% 0.0 mm 0 W/m2
20:20 2.2 °C 1.8 °C 1018.6 hPa Calm     97% 0.0 mm 0 W/m2
20:25 2.3 °C 1.9 °C 1018.3 hPa Calm   1.6 km/h 97% 0.0 mm 0 W/m2
20:30 2.3 °C 1.9 °C 1018.6 hPa Calm     97% 0.0 mm 0 W/m2
20:35 2.3 °C 1.9 °C 1018.6 hPa Calm   3.2 km/h 97% 0.0 mm 0 W/m2
20:40 2.3 °C 1.9 °C 1018.6 hPa Calm     97% 0.0 mm 0 W/m2
20:45 2.3 °C 1.9 °C 1018.6 hPa Calm   3.2 km/h 97% 0.0 mm 0 W/m2
20:50 2.3 °C 1.9 °C 1018.6 hPa Calm     97% 0.0 mm 0 W/m2
20:55 2.3 °C 1.9 °C 1018.6 hPa Calm     97% 0.0 mm 0 W/m2
21:00 2.3 °C 1.9 °C 1018.6 hPa Calm     97% 0.0 mm 0 W/m2
21:05 2.3 °C 1.9 °C 1018.6 hPa Calm     97% 0.0 mm 0 W/m2
21:10 2.4 °C 2.1 °C 1018.6 hPa Calm     98% 0.0 mm 0 W/m2
21:15 2.6 °C 2.3 °C 1018.6 hPa Calm     98% 0.0 mm 0 W/m2
21:20 2.6 °C 2.3 °C 1018.6 hPa Calm     98% 0.0 mm 0 W/m2
21:25 2.6 °C 2.3 °C 1018.6 hPa Calm     98% 0.0 mm 0 W/m2
21:30 2.7 °C 2.4 °C 1018.6 hPa Calm     98% 0.0 mm 0 W/m2
21:35 2.7 °C 2.4 °C 1019.0 hPa Calm     98% 0.0 mm 0 W/m2
21:40 2.7 °C 2.4 °C 1019.0 hPa Calm     98% 0.0 mm 0 W/m2
21:45 2.8 °C 2.5 °C 1019.0 hPa Calm     98% 0.0 mm 0 W/m2
21:50 2.7 °C 2.4 °C 1019.0 hPa Calm     98% 0.0 mm 0 W/m2
21:55 2.7 °C 2.4 °C 1019.0 hPa Calm     98% 0.0 mm 0 W/m2
22:00 2.7 °C 2.4 °C 1019.0 hPa Calm     98% 0.0 mm 0 W/m2
22:05 2.7 °C 2.4 °C 1019.0 hPa Calm     98% 0.0 mm 0 W/m2
22:10 2.7 °C 2.4 °C 1019.0 hPa Calm     98% 0.0 mm 0 W/m2
22:15 2.7 °C 2.4 °C 1019.0 hPa Calm     98% 0.0 mm 0 W/m2
22:20 2.7 °C 2.4 °C 1019.0 hPa Calm     98% 0.0 mm 0 W/m2
22:25 2.7 °C 2.4 °C 1019.0 hPa Calm     98% 0.0 mm 0 W/m2
22:30 2.7 °C 2.3 °C 1019.0 hPa Calm     97% 0.0 mm 0 W/m2
22:35 2.7 °C 2.3 °C 1019.0 hPa Calm     97% 0.0 mm 0 W/m2
22:40 2.7 °C 2.3 °C 1019.0 hPa Calm   3.2 km/h 97% 0.0 mm 0 W/m2
22:45 2.7 °C 2.3 °C 1019.0 hPa ENE 1.4 km/h 3.2 km/h 97% 0.0 mm 0 W/m2
22:50 2.7 °C 2.3 °C 1019.0 hPa Calm     97% 0.0 mm 0 W/m2
22:55 2.7 °C 2.3 °C 1019.0 hPa Calm   1.6 km/h 97% 0.0 mm 0 W/m2
23:00 2.7 °C 2.3 °C 1019.0 hPa Calm   1.6 km/h 97% 0.0 mm 0 W/m2
23:05 2.6 °C 2.2 °C 1019.0 hPa Calm     97% 0.0 mm 0 W/m2
23:10 2.6 °C 2.2 °C 1019.0 hPa Calm   1.6 km/h 97% 0.0 mm 0 W/m2
23:15 2.6 °C 2.3 °C 1019.0 hPa Calm     98% 0.0 mm 0 W/m2
23:20 2.5 °C 2.2 °C 1019.0 hPa Calm   1.6 km/h 98% 0.0 mm 0 W/m2
23:25 2.5 °C 2.2 °C 1019.0 hPa Calm     98% 0.0 mm 0 W/m2
23:30 2.4 °C 2 °C 1019.0 hPa Calm     97% 0.0 mm 0 W/m2
23:35 2.3 °C 1.9 °C 1019.0 hPa Calm     97% 0.0 mm 0 W/m2
23:40 2.3 °C 1.9 °C 1019.0 hPa Calm     97% 0.0 mm 0 W/m2
23:45 2.2 °C 1.8 °C 1019.0 hPa Calm     97% 0.0 mm 0 W/m2
23:50 2.1 °C 1.7 °C 1019.0 hPa Calm     97% 0.0 mm 0 W/m2
23:55 2 °C 1.6 °C 1019.0 hPa Calm     97% 0.0 mm 0 W/m2
Juneau County Weather
Compliments of Weather Underground - 2 mb